sensor_id;sensor_type;location;lat;lon;timestamp;P1;durP1;ratioP1;P2;durP2;ratioP2
1503;SDS011;743;47.076;15.494;2022-08-14T14:55:06;24.17;;;12.27;;
1503;SDS011;743;47.076;15.494;2022-08-14T14:57:36;15.32;;;9.23;;
1503;SDS011;743;47.076;15.494;2022-08-14T15:00:07;15.63;;;7.05;;
1503;SDS011;743;47.076;15.494;2022-08-14T15:03:02;512.88;;;469.10;;
1503;SDS011;743;47.076;15.494;2022-08-14T15:05:31;523.45;;;486.75;;
1503;SDS011;743;47.076;15.494;2022-08-14T15:07:59;400.20;;;373.13;;
1503;SDS011;743;47.076;15.494;2022-08-14T15:10:28;315.50;;;294.20;;
1503;SDS011;743;47.076;15.494;2022-08-14T15:12:55;485.73;;;453.27;;
1503;SDS011;743;47.076;15.494;2022-08-14T15:15:23;399.33;;;373.15;;
1503;SDS011;743;47.076;15.494;2022-08-14T15:17:50;354.30;;;330.55;;
1503;SDS011;743;47.076;15.494;2022-08-14T15:20:17;267.08;;;249.93;;
1503;SDS011;743;47.076;15.494;2022-08-14T15:22:46;186.48;;;173.75;;
1503;SDS011;743;47.076;15.494;2022-08-14T15:25:14;279.98;;;261.88;;
1503;SDS011;743;47.076;15.494;2022-08-14T15:27:42;80.43;;;73.85;;
1503;SDS011;743;47.076;15.494;2022-08-14T15:32:37;142.32;;;131.80;;
1503;SDS011;743;47.076;15.494;2022-08-14T15:35:04;162.40;;;150.00;;
1503;SDS011;743;47.076;15.494;2022-08-14T15:37:32;180.98;;;167.65;;
1503;SDS011;743;47.076;15.494;2022-08-14T15:42:28;144.10;;;133.45;;
1503;SDS011;743;47.076;15.494;2022-08-14T15:44:59;222.10;;;207.10;;
1503;SDS011;743;47.076;15.494;2022-08-14T15:49:53;135.30;;;123.70;;
1503;SDS011;743;47.076;15.494;2022-08-14T15:52:20;54.53;;;49.40;;
1503;SDS011;743;47.076;15.494;2022-08-14T15:54:48;75.00;;;68.50;;
1503;SDS011;743;47.076;15.494;2022-08-14T15:57:15;36.63;;;18.00;;
1503;SDS011;743;47.076;15.494;2022-08-14T15:59:45;49.47;;;43.10;;
1503;SDS011;743;47.076;15.494;2022-08-14T16:02:31;85.20;;;77.65;;
1503;SDS011;743;47.076;15.494;2022-08-14T16:04:58;41.50;;;31.95;;
1503;SDS011;743;47.076;15.494;2022-08-14T16:07:25;52.53;;;35.65;;
1503;SDS011;743;47.076;15.494;2022-08-14T16:09:53;40.53;;;26.15;;
1503;SDS011;743;47.076;15.494;2022-08-14T16:12:20;41.40;;;22.27;;
1503;SDS011;743;47.076;15.494;2022-08-14T16:14:47;43.97;;;22.20;;
1503;SDS011;743;47.076;15.494;2022-08-14T16:17:14;33.55;;;21.80;;
1503;SDS011;743;47.076;15.494;2022-08-14T16:19:43;49.60;;;41.42;;
1503;SDS011;743;47.076;15.494;2022-08-14T16:22:11;51.95;;;40.35;;
1503;SDS011;743;47.076;15.494;2022-08-14T16:24:42;34.88;;;21.42;;
1503;SDS011;743;47.076;15.494;2022-08-14T16:27:10;56.58;;;50.15;;
1503;SDS011;743;47.076;15.494;2022-08-14T16:29:38;41.50;;;27.02;;
1503;SDS011;743;47.076;15.494;2022-08-14T16:32:08;56.78;;;51.40;;
1503;SDS011;743;47.076;15.494;2022-08-14T16:34:37;51.03;;;30.38;;
1503;SDS011;743;47.076;15.494;2022-08-14T16:37:08;58.72;;;52.70;;
1503;SDS011;743;47.076;15.494;2022-08-14T16:39:37;42.08;;;28.25;;
1503;SDS011;743;47.076;15.494;2022-08-14T16:42:06;33.95;;;15.02;;
1503;SDS011;743;47.076;15.494;2022-08-14T16:47:04;28.67;;;18.88;;
1503;SDS011;743;47.076;15.494;2022-08-14T16:49:32;31.58;;;15.15;;
1503;SDS011;743;47.076;15.494;2022-08-14T16:52:00;28.40;;;15.88;;
1503;SDS011;743;47.076;15.494;2022-08-14T16:54:29;47.53;;;34.33;;
1503;SDS011;743;47.076;15.494;2022-08-14T16:59:43;38.38;;;19.15;;
1503;SDS011;743;47.076;15.494;2022-08-14T17:02:11;56.75;;;25.58;;
1503;SDS011;743;47.076;15.494;2022-08-14T17:04:39;31.65;;;16.25;;
1503;SDS011;743;47.076;15.494;2022-08-14T17:07:08;33.17;;;16.75;;
1503;SDS011;743;47.076;15.494;2022-08-14T17:09:39;34.67;;;15.50;;
1503;SDS011;743;47.076;15.494;2022-08-14T17:12:10;29.63;;;14.23;;
1503;SDS011;743;47.076;15.494;2022-08-14T17:14:52;39.22;;;19.83;;
1503;SDS011;743;47.076;15.494;2022-08-14T17:17:42;31.40;;;15.73;;
1503;SDS011;743;47.076;15.494;2022-08-14T17:20:13;31.08;;;15.65;;
1503;SDS011;743;47.076;15.494;2022-08-14T17:22:46;34.58;;;17.65;;
1503;SDS011;743;47.076;15.494;2022-08-14T17:25:17;42.05;;;24.00;;
1503;SDS011;743;47.076;15.494;2022-08-14T17:30:46;40.15;;;17.73;;
1503;SDS011;743;47.076;15.494;2022-08-14T17:33:17;36.53;;;16.77;;
1503;SDS011;743;47.076;15.494;2022-08-14T17:35:44;35.30;;;14.73;;
1503;SDS011;743;47.076;15.494;2022-08-14T17:38:12;23.90;;;11.10;;
1503;SDS011;743;47.076;15.494;2022-08-14T17:40:44;20.85;;;10.20;;
1503;SDS011;743;47.076;15.494;2022-08-14T17:43:32;44.95;;;16.42;;
1503;SDS011;743;47.076;15.494;2022-08-14T17:45:59;36.83;;;14.85;;
1503;SDS011;743;47.076;15.494;2022-08-14T17:48:27;29.48;;;12.70;;
1503;SDS011;743;47.076;15.494;2022-08-14T17:50:56;21.70;;;10.70;;
1503;SDS011;743;47.076;15.494;2022-08-14T17:53:24;27.00;;;12.32;;
1503;SDS011;743;47.076;15.494;2022-08-14T17:55:53;34.42;;;14.48;;
